N37WX NZWN-NZHN
Flight info
| Callsign | N37WX |
|---|---|
| Flight time | 0h 41m |
| Altitude | 39000 |
| Route | UPLU2R/34 KAPTI Y273 LIKTU Q126 DABKA |
| Aircraft | FA50/M-SDFGHIM1RWXY/H |
Departure
| Time | 2026-04-15 04:57 |
|---|---|
| Airport | Wellington International Airport (NZWN) |
Arrival
| Time | 2026-04-15 05:38 |
|---|---|
| Airport | Hamilton International Airport (NZHN) |
| Time | Latitude | Longitude | Altitude | Speed | Heading |
|---|---|---|---|---|---|
| 2026-04-15 04:45 | -41.32447 | 174.80428 | 9 ft | 0 kts | 340° |
| 2026-04-15 04:53 | -41.32446 | 174.80428 | 9 ft | 0 kts | 340° |
| 2026-04-15 04:53 | -41.32447 | 174.80444 | 9 ft | 6 kts | 162° |
| 2026-04-15 04:54 | -41.32509 | 174.80457 | 9 ft | 12 kts | 117° |
| 2026-04-15 04:54 | -41.32568 | 174.80564 | 9 ft | 16 kts | 170° |
| 2026-04-15 04:54 | -41.32631 | 174.80563 | 9 ft | 3 kts | 184° |
| 2026-04-15 04:54 | -41.32636 | 174.80562 | 9 ft | 1 kts | 184° |
| 2026-04-15 04:55 | -41.32674 | 174.80569 | 9 ft | 11 kts | 119° |
| 2026-04-15 04:55 | -41.32698 | 174.80682 | 9 ft | 16 kts | 164° |
| 2026-04-15 04:55 | -41.32868 | 174.80677 | 9 ft | 30 kts | 183° |
| 2026-04-15 04:55 | -41.33081 | 174.80663 | 9 ft | 31 kts | 182° |
| 2026-04-15 04:56 | -41.33296 | 174.80650 | 9 ft | 26 kts | 182° |
| 2026-04-15 04:56 | -41.33477 | 174.80638 | 9 ft | 25 kts | 182° |
| 2026-04-15 04:56 | -41.33565 | 174.80638 | 9 ft | 8 kts | 346° |
| 2026-04-15 04:56 | -41.33348 | 174.80645 | 9 ft | 79 kts | 4° |
| 2026-04-15 04:57 | -41.32548 | 174.80724 | 303 ft | 135 kts | 4° |
| 2026-04-15 04:57 | -41.31595 | 174.80819 | 1271 ft | 147 kts | 2° |
| 2026-04-15 04:57 | -41.30421 | 174.80911 | 2040 ft | 185 kts | 1° |
| 2026-04-15 04:57 | -41.29051 | 174.80955 | 3126 ft | 207 kts | 360° |
| 2026-04-15 04:58 | -41.27559 | 174.81000 | 4355 ft | 221 kts | 359° |
| 2026-04-15 04:58 | -41.25981 | 174.81138 | 5667 ft | 232 kts | 1° |
| 2026-04-15 04:58 | -41.24347 | 174.81333 | 7030 ft | 239 kts | 1° |
| 2026-04-15 04:58 | -41.22664 | 174.81545 | 8439 ft | 246 kts | 1° |
| 2026-04-15 04:59 | -41.20939 | 174.81771 | 9881 ft | 253 kts | 1° |
| 2026-04-15 04:59 | -41.19161 | 174.82024 | 11315 ft | 259 kts | 360° |
| 2026-04-15 04:59 | -41.17364 | 174.82260 | 12706 ft | 261 kts | 358° |
| 2026-04-15 04:59 | -41.15555 | 174.82477 | 14054 ft | 261 kts | 357° |
| 2026-04-15 05:00 | -41.13731 | 174.82687 | 15224 ft | 266 kts | 356° |
| 2026-04-15 05:00 | -41.11898 | 174.82888 | 16278 ft | 271 kts | 356° |
| 2026-04-15 05:00 | -41.09966 | 174.83101 | 17308 ft | 276 kts | 355° |
| 2026-04-15 05:00 | -41.08036 | 174.83317 | 18264 ft | 281 kts | 355° |
| 2026-04-15 05:01 | -41.06090 | 174.83535 | 19152 ft | 286 kts | 355° |
| 2026-04-15 05:01 | -41.04090 | 174.83762 | 20013 ft | 291 kts | 355° |
| 2026-04-15 05:01 | -41.02055 | 174.83994 | 20832 ft | 295 kts | 355° |
| 2026-04-15 05:01 | -40.99994 | 174.84230 | 21599 ft | 299 kts | 355° |
| 2026-04-15 05:02 | -40.97904 | 174.84471 | 22338 ft | 303 kts | 355° |
| 2026-04-15 05:02 | -40.95787 | 174.84715 | 23038 ft | 307 kts | 354° |
| 2026-04-15 05:02 | -40.93644 | 174.84963 | 23703 ft | 311 kts | 355° |
| 2026-04-15 05:02 | -40.91476 | 174.85214 | 24336 ft | 314 kts | 354° |
| 2026-04-15 05:03 | -40.89283 | 174.85468 | 24953 ft | 317 kts | 354° |
| 2026-04-15 05:03 | -40.87079 | 174.85725 | 25557 ft | 319 kts | 354° |
| 2026-04-15 05:03 | -40.84852 | 174.85983 | 26114 ft | 322 kts | 354° |
| 2026-04-15 05:03 | -40.82631 | 174.86241 | 26636 ft | 325 kts | 353° |
| 2026-04-15 05:04 | -40.80370 | 174.86502 | 27150 ft | 327 kts | 353° |
| 2026-04-15 05:04 | -40.78102 | 174.86764 | 27628 ft | 330 kts | 353° |
| 2026-04-15 05:04 | -40.75791 | 174.87031 | 28092 ft | 333 kts | 353° |
| 2026-04-15 05:04 | -40.73479 | 174.87298 | 28555 ft | 334 kts | 353° |
| 2026-04-15 05:05 | -40.71152 | 174.87568 | 28987 ft | 336 kts | 353° |
| 2026-04-15 05:05 | -40.68815 | 174.87837 | 29411 ft | 339 kts | 352° |
| 2026-04-15 05:05 | -40.66450 | 174.88107 | 29856 ft | 342 kts | 352° |
| 2026-04-15 05:05 | -40.64069 | 174.88379 | 30325 ft | 345 kts | 352° |
| 2026-04-15 05:06 | -40.61658 | 174.88654 | 30816 ft | 349 kts | 352° |
| 2026-04-15 05:06 | -40.59231 | 174.88931 | 31346 ft | 351 kts | 353° |
| 2026-04-15 05:06 | -40.56782 | 174.89211 | 31909 ft | 354 kts | 353° |
| 2026-04-15 05:06 | -40.54309 | 174.89493 | 32467 ft | 358 kts | 353° |
| 2026-04-15 05:07 | -40.51812 | 174.89779 | 33054 ft | 362 kts | 353° |
| 2026-04-15 05:07 | -40.49320 | 174.90062 | 33648 ft | 366 kts | 353° |
| 2026-04-15 05:07 | -40.46766 | 174.90352 | 34282 ft | 370 kts | 353° |
| 2026-04-15 05:07 | -40.44186 | 174.90644 | 34979 ft | 373 kts | 354° |
| 2026-04-15 05:08 | -40.41589 | 174.90940 | 35730 ft | 376 kts | 354° |
| 2026-04-15 05:08 | -40.38967 | 174.91239 | 36515 ft | 379 kts | 354° |
| 2026-04-15 05:08 | -40.36328 | 174.91541 | 37300 ft | 381 kts | 355° |
| 2026-04-15 05:08 | -40.33679 | 174.91843 | 38038 ft | 383 kts | 355° |
| 2026-04-15 05:09 | -40.30985 | 174.92144 | 38399 ft | 397 kts | 355° |
| 2026-04-15 05:09 | -40.28158 | 174.92445 | 38468 ft | 416 kts | 355° |
| 2026-04-15 05:09 | -40.25217 | 174.92756 | 38568 ft | 432 kts | 356° |
| 2026-04-15 05:09 | -40.22201 | 174.93079 | 38628 ft | 448 kts | 356° |
| 2026-04-15 05:10 | -40.19041 | 174.93421 | 38640 ft | 462 kts | 356° |
| 2026-04-15 05:10 | -40.15788 | 174.93780 | 38642 ft | 475 kts | 357° |
| 2026-04-15 05:10 | -40.09061 | 174.94541 | 38641 ft | 493 kts | 357° |
| 2026-04-15 05:11 | -40.02157 | 174.95346 | 38640 ft | 502 kts | 358° |
| 2026-04-15 05:11 | -39.95166 | 174.96173 | 38640 ft | 506 kts | 357° |
| 2026-04-15 05:12 | -39.88192 | 174.96997 | 38641 ft | 507 kts | 357° |
| 2026-04-15 05:12 | -39.81155 | 174.97818 | 38643 ft | 507 kts | 357° |
| 2026-04-15 05:13 | -39.74134 | 174.98446 | 38646 ft | 504 kts | 354° |
| 2026-04-15 05:13 | -39.67141 | 174.98604 | 38648 ft | 501 kts | 352° |
| 2026-04-15 05:14 | -39.60174 | 174.98548 | 38650 ft | 500 kts | 351° |
| 2026-04-15 05:14 | -39.53211 | 174.98409 | 38655 ft | 500 kts | 351° |
| 2026-04-15 05:15 | -39.46296 | 174.98258 | 38658 ft | 500 kts | 351° |
| 2026-04-15 05:15 | -39.42821 | 174.98190 | 38393 ft | 496 kts | 351° |
| 2026-04-15 05:15 | -39.39383 | 174.98133 | 37709 ft | 492 kts | 351° |
| 2026-04-15 05:16 | -39.35971 | 174.98081 | 37054 ft | 489 kts | 351° |
| 2026-04-15 05:16 | -39.32561 | 174.98033 | 36401 ft | 488 kts | 350° |
| 2026-04-15 05:16 | -39.29166 | 174.97989 | 35817 ft | 486 kts | 350° |
| 2026-04-15 05:16 | -39.25800 | 174.97947 | 35382 ft | 482 kts | 350° |
| 2026-04-15 05:17 | -39.22450 | 174.97905 | 34935 ft | 480 kts | 350° |
| 2026-04-15 05:17 | -39.19083 | 174.97854 | 34486 ft | 487 kts | 350° |
| 2026-04-15 05:17 | -39.15716 | 174.97798 | 34043 ft | 490 kts | 350° |
| 2026-04-15 05:17 | -39.12304 | 174.97747 | 33594 ft | 490 kts | 350° |
| 2026-04-15 05:18 | -39.08895 | 174.97701 | 33145 ft | 490 kts | 350° |
| 2026-04-15 05:18 | -39.05477 | 174.97658 | 32695 ft | 491 kts | 350° |
| 2026-04-15 05:18 | -39.02062 | 174.97619 | 32246 ft | 491 kts | 350° |
| 2026-04-15 05:18 | -38.98640 | 174.97581 | 31797 ft | 492 kts | 350° |
| 2026-04-15 05:19 | -38.95212 | 174.97543 | 31348 ft | 493 kts | 350° |
| 2026-04-15 05:19 | -38.91778 | 174.97504 | 30801 ft | 495 kts | 350° |
| 2026-04-15 05:19 | -38.88292 | 174.97456 | 29826 ft | 505 kts | 351° |
| 2026-04-15 05:19 | -38.84822 | 174.97423 | 28857 ft | 490 kts | 351° |
| 2026-04-15 05:20 | -38.81460 | 174.97431 | 27958 ft | 473 kts | 352° |
| 2026-04-15 05:20 | -38.78187 | 174.97450 | 27313 ft | 479 kts | 352° |
| 2026-04-15 05:20 | -38.74831 | 174.97423 | 26811 ft | 492 kts | 351° |
| 2026-04-15 05:20 | -38.71413 | 174.97368 | 26309 ft | 489 kts | 351° |
| 2026-04-15 05:21 | -38.67971 | 174.97302 | 25812 ft | 493 kts | 352° |
| 2026-04-15 05:21 | -38.64586 | 174.97257 | 25310 ft | 477 kts | 352° |
| 2026-04-15 05:21 | -38.61319 | 174.97228 | 24804 ft | 462 kts | 352° |
| 2026-04-15 05:21 | -38.58149 | 174.97201 | 24300 ft | 450 kts | 352° |
| 2026-04-15 05:22 | -38.55030 | 174.97458 | 23796 ft | 446 kts | 0° |
| 2026-04-15 05:22 | -38.51985 | 174.98167 | 23296 ft | 447 kts | 7° |
| 2026-04-15 05:22 | -38.48953 | 174.99217 | 22778 ft | 457 kts | 11° |
| 2026-04-15 05:22 | -38.45923 | 175.00528 | 22178 ft | 453 kts | 15° |
| 2026-04-15 05:23 | -38.43047 | 175.01978 | 21560 ft | 435 kts | 17° |
| 2026-04-15 05:23 | -38.40357 | 175.03478 | 20943 ft | 420 kts | 19° |
| 2026-04-15 05:23 | -38.37693 | 175.05049 | 20319 ft | 429 kts | 20° |
| 2026-04-15 05:23 | -38.34952 | 175.06671 | 19783 ft | 437 kts | 20° |
| 2026-04-15 05:24 | -38.32171 | 175.08271 | 19374 ft | 440 kts | 19° |
| 2026-04-15 05:24 | -38.29367 | 175.09843 | 18976 ft | 442 kts | 18° |
| 2026-04-15 05:24 | -38.26561 | 175.11376 | 18505 ft | 425 kts | 18° |
| 2026-04-15 05:24 | -38.23936 | 175.12713 | 17910 ft | 389 kts | 13° |
| 2026-04-15 05:25 | -38.21436 | 175.13766 | 17177 ft | 366 kts | 10° |
| 2026-04-15 05:25 | -38.19838 | 175.14355 | 16665 ft | 354 kts | 8° |
| 2026-04-15 05:25 | -38.17517 | 175.15130 | 15891 ft | 337 kts | 7° |
| 2026-04-15 05:25 | -38.15282 | 175.15825 | 15154 ft | 325 kts | 6° |
| 2026-04-15 05:26 | -38.12423 | 175.16681 | 14224 ft | 312 kts | 6° |
| 2026-04-15 05:26 | -38.10341 | 175.17308 | 13544 ft | 308 kts | 7° |
| 2026-04-15 05:26 | -38.08904 | 175.17739 | 13100 ft | 319 kts | 7° |
| 2026-04-15 05:26 | -38.06719 | 175.18389 | 12478 ft | 324 kts | 7° |
| 2026-04-15 05:27 | -38.04510 | 175.19059 | 11854 ft | 329 kts | 8° |
| 2026-04-15 05:27 | -38.02271 | 175.19743 | 11229 ft | 332 kts | 8° |
| 2026-04-15 05:27 | -38.00018 | 175.20433 | 10580 ft | 332 kts | 8° |
| 2026-04-15 05:27 | -37.97802 | 175.21115 | 10037 ft | 330 kts | 8° |
| 2026-04-15 05:28 | -37.95616 | 175.21796 | 9556 ft | 317 kts | 8° |
| 2026-04-15 05:28 | -37.93510 | 175.22457 | 9085 ft | 307 kts | 8° |
| 2026-04-15 05:28 | -37.91452 | 175.23100 | 8583 ft | 300 kts | 8° |
| 2026-04-15 05:28 | -37.89431 | 175.23726 | 8190 ft | 299 kts | 7° |
| 2026-04-15 05:29 | -37.87374 | 175.24351 | 7895 ft | 308 kts | 7° |
| 2026-04-15 05:29 | -37.85270 | 175.24998 | 7598 ft | 314 kts | 8° |
| 2026-04-15 05:29 | -37.83145 | 175.25714 | 7302 ft | 318 kts | 9° |
| 2026-04-15 05:29 | -37.80996 | 175.26468 | 6968 ft | 322 kts | 10° |
| 2026-04-15 05:30 | -37.78831 | 175.27251 | 6597 ft | 326 kts | 11° |
| 2026-04-15 05:30 | -37.76699 | 175.28041 | 6200 ft | 306 kts | 11° |
| 2026-04-15 05:30 | -37.74741 | 175.28785 | 5737 ft | 281 kts | 11° |
| 2026-04-15 05:30 | -37.72927 | 175.29472 | 5328 ft | 266 kts | 10° |
| 2026-04-15 05:31 | -37.71180 | 175.30111 | 4920 ft | 256 kts | 10° |
| 2026-04-15 05:31 | -37.69479 | 175.30728 | 4517 ft | 250 kts | 10° |
| 2026-04-15 05:31 | -37.67931 | 175.31548 | 4092 ft | 235 kts | 31° |
| 2026-04-15 05:31 | -37.66793 | 175.32952 | 3546 ft | 225 kts | 51° |
| 2026-04-15 05:32 | -37.65969 | 175.34544 | 3052 ft | 210 kts | 60° |
| 2026-04-15 05:32 | -37.65630 | 175.36266 | 2496 ft | 198 kts | 103° |
| 2026-04-15 05:32 | -37.66361 | 175.37647 | 2592 ft | 198 kts | 148° |
| 2026-04-15 05:32 | -37.67570 | 175.38519 | 2553 ft | 194 kts | 163° |
| 2026-04-15 05:33 | -37.68800 | 175.38949 | 2488 ft | 180 kts | 178° |
| 2026-04-15 05:33 | -37.70056 | 175.39011 | 2528 ft | 186 kts | 189° |
| 2026-04-15 05:33 | -37.71339 | 175.38787 | 2531 ft | 181 kts | 196° |
| 2026-04-15 05:33 | -37.72382 | 175.38442 | 2492 ft | 139 kts | 204° |
| 2026-04-15 05:34 | -37.73318 | 175.38049 | 2531 ft | 141 kts | 202° |
| 2026-04-15 05:34 | -37.74275 | 175.37697 | 2519 ft | 145 kts | 200° |
| 2026-04-15 05:34 | -37.75253 | 175.37347 | 2511 ft | 148 kts | 202° |
| 2026-04-15 05:34 | -37.76133 | 175.37018 | 2389 ft | 124 kts | 204° |
| 2026-04-15 05:35 | -37.76968 | 175.36681 | 2098 ft | 124 kts | 201° |
| 2026-04-15 05:35 | -37.77789 | 175.36423 | 1846 ft | 123 kts | 199° |
| 2026-04-15 05:35 | -37.78547 | 175.36184 | 1596 ft | 110 kts | 202° |
| 2026-04-15 05:35 | -37.79309 | 175.35832 | 1359 ft | 115 kts | 203° |
| 2026-04-15 05:36 | -37.80077 | 175.35601 | 1142 ft | 134 kts | 197° |
| 2026-04-15 05:36 | -37.80897 | 175.35307 | 1054 ft | 119 kts | 201° |
| 2026-04-15 05:36 | -37.81664 | 175.35014 | 918 ft | 109 kts | 197° |
| 2026-04-15 05:36 | -37.82470 | 175.34753 | 865 ft | 125 kts | 199° |
| 2026-04-15 05:37 | -37.83267 | 175.34461 | 686 ft | 121 kts | 201° |
| 2026-04-15 05:37 | -37.84017 | 175.34160 | 462 ft | 108 kts | 196° |
| 2026-04-15 05:37 | -37.84802 | 175.33900 | 359 ft | 118 kts | 200° |
| 2026-04-15 05:37 | -37.85569 | 175.33623 | 241 ft | 115 kts | 199° |
| 2026-04-15 05:38 | -37.86271 | 175.33360 | 178 ft | 91 kts | 197° |
| 2026-04-15 05:38 | -37.86645 | 175.33230 | 177 ft | 25 kts | 180° |
| 2026-04-15 05:38 | -37.86672 | 175.33217 | 177 ft | 8 kts | 25° |
| 2026-04-15 05:38 | -37.86601 | 175.33245 | 177 ft | 13 kts | 17° |
| 2026-04-15 05:39 | -37.86535 | 175.33327 | 177 ft | 16 kts | 107° |
| 2026-04-15 05:39 | -37.86558 | 175.33474 | 177 ft | 18 kts | 63° |
| 2026-04-15 05:39 | -37.86455 | 175.33560 | 177 ft | 17 kts | 48° |
| 2026-04-15 05:39 | -37.86476 | 175.33605 | 177 ft | 4 kts | 196° |
| 2026-04-15 05:40 | -37.86482 | 175.33603 | 177 ft | 0 kts | 197° |